sensor_id;sensor_type;location;lat;lon;timestamp;P1;durP1;ratioP1;P2;durP2;ratioP2
25503;SDS011;13410;52.114;5.718;2023-08-30T00:00:02;10.05;;;8.05;;
25503;SDS011;13410;52.114;5.718;2023-08-30T00:02:29;9.77;;;7.78;;
25503;SDS011;13410;52.114;5.718;2023-08-30T00:04:58;12.30;;;8.00;;
25503;SDS011;13410;52.114;5.718;2023-08-30T00:07:24;11.32;;;7.88;;
25503;SDS011;13410;52.114;5.718;2023-08-30T00:09:53;13.43;;;8.95;;
25503;SDS011;13410;52.114;5.718;2023-08-30T00:12:24;8.57;;;7.30;;
25503;SDS011;13410;52.114;5.718;2023-08-30T00:14:50;11.82;;;7.82;;
25503;SDS011;13410;52.114;5.718;2023-08-30T00:17:22;11.30;;;7.75;;
25503;SDS011;13410;52.114;5.718;2023-08-30T00:19:51;9.75;;;7.55;;
25503;SDS011;13410;52.114;5.718;2023-08-30T00:22:23;11.65;;;8.25;;
25503;SDS011;13410;52.114;5.718;2023-08-30T00:24:57;10.05;;;8.15;;
25503;SDS011;13410;52.114;5.718;2023-08-30T00:27:30;11.10;;;8.27;;
25503;SDS011;13410;52.114;5.718;2023-08-30T00:29:59;10.70;;;7.70;;
25503;SDS011;13410;52.114;5.718;2023-08-30T00:32:24;9.80;;;8.05;;
25503;SDS011;13410;52.114;5.718;2023-08-30T00:35:10;10.05;;;8.00;;
25503;SDS011;13410;52.114;5.718;2023-08-30T00:37:39;12.00;;;8.30;;
25503;SDS011;13410;52.114;5.718;2023-08-30T00:40:09;12.20;;;8.80;;
25503;SDS011;13410;52.114;5.718;2023-08-30T00:42:44;14.45;;;8.93;;
25503;SDS011;13410;52.114;5.718;2023-08-30T00:45:13;11.70;;;8.73;;
25503;SDS011;13410;52.114;5.718;2023-08-30T00:47:41;11.75;;;8.70;;
25503;SDS011;13410;52.114;5.718;2023-08-30T00:50:07;12.52;;;9.73;;
25503;SDS011;13410;52.114;5.718;2023-08-30T00:52:39;12.38;;;8.88;;
25503;SDS011;13410;52.114;5.718;2023-08-30T00:55:05;12.55;;;8.93;;
25503;SDS011;13410;52.114;5.718;2023-08-30T00:57:34;11.23;;;8.50;;
25503;SDS011;13410;52.114;5.718;2023-08-30T01:00:01;11.75;;;9.13;;
25503;SDS011;13410;52.114;5.718;2023-08-30T01:02:35;12.65;;;8.98;;
25503;SDS011;13410;52.114;5.718;2023-08-30T01:05:02;13.65;;;9.10;;
25503;SDS011;13410;52.114;5.718;2023-08-30T01:07:28;10.82;;;8.45;;
25503;SDS011;13410;52.114;5.718;2023-08-30T01:09:54;13.02;;;9.07;;
25503;SDS011;13410;52.114;5.718;2023-08-30T01:12:32;12.30;;;9.02;;
25503;SDS011;13410;52.114;5.718;2023-08-30T01:15:13;14.25;;;8.40;;
25503;SDS011;13410;52.114;5.718;2023-08-30T01:17:48;12.63;;;9.70;;
25503;SDS011;13410;52.114;5.718;2023-08-30T01:20:25;11.80;;;9.05;;
25503;SDS011;13410;52.114;5.718;2023-08-30T01:28:13;11.70;;;8.52;;
25503;SDS011;13410;52.114;5.718;2023-08-30T01:30:51;14.30;;;9.18;;
25503;SDS011;13410;52.114;5.718;2023-08-30T01:33:23;13.38;;;9.48;;
25503;SDS011;13410;52.114;5.718;2023-08-30T01:35:53;10.60;;;8.85;;
25503;SDS011;13410;52.114;5.718;2023-08-30T01:38:29;9.60;;;7.57;;
25503;SDS011;13410;52.114;5.718;2023-08-30T01:41:04;12.27;;;8.30;;
25503;SDS011;13410;52.114;5.718;2023-08-30T01:43:36;9.82;;;7.75;;
25503;SDS011;13410;52.114;5.718;2023-08-30T01:46:02;11.20;;;8.32;;
25503;SDS011;13410;52.114;5.718;2023-08-30T01:48:32;11.00;;;8.55;;
25503;SDS011;13410;52.114;5.718;2023-08-30T01:50:59;10.43;;;8.23;;
25503;SDS011;13410;52.114;5.718;2023-08-30T01:53:31;13.50;;;8.57;;
25503;SDS011;13410;52.114;5.718;2023-08-30T01:56:02;10.55;;;7.90;;
25503;SDS011;13410;52.114;5.718;2023-08-30T01:58:31;12.18;;;8.45;;
25503;SDS011;13410;52.114;5.718;2023-08-30T02:01:02;11.52;;;8.60;;
25503;SDS011;13410;52.114;5.718;2023-08-30T02:03:31;10.55;;;8.32;;
25503;SDS011;13410;52.114;5.718;2023-08-30T02:08:54;11.63;;;7.97;;
25503;SDS011;13410;52.114;5.718;2023-08-30T02:11:32;11.77;;;8.25;;
25503;SDS011;13410;52.114;5.718;2023-08-30T02:14:05;11.52;;;8.50;;
25503;SDS011;13410;52.114;5.718;2023-08-30T02:16:34;10.88;;;8.45;;
25503;SDS011;13410;52.114;5.718;2023-08-30T02:19:09;12.70;;;8.82;;
25503;SDS011;13410;52.114;5.718;2023-08-30T02:21:36;11.52;;;8.70;;
25503;SDS011;13410;52.114;5.718;2023-08-30T02:24:10;11.15;;;8.82;;
25503;SDS011;13410;52.114;5.718;2023-08-30T02:26:38;13.25;;;9.40;;
25503;SDS011;13410;52.114;5.718;2023-08-30T02:29:04;12.93;;;8.95;;
25503;SDS011;13410;52.114;5.718;2023-08-30T02:31:34;12.98;;;9.63;;
25503;SDS011;13410;52.114;5.718;2023-08-30T02:34:03;12.60;;;9.30;;
25503;SDS011;13410;52.114;5.718;2023-08-30T02:36:43;12.68;;;9.25;;
25503;SDS011;13410;52.114;5.718;2023-08-30T02:39:12;10.57;;;8.65;;
25503;SDS011;13410;52.114;5.718;2023-08-30T02:41:39;13.80;;;9.77;;
25503;SDS011;13410;52.114;5.718;2023-08-30T02:44:07;16.45;;;10.00;;
25503;SDS011;13410;52.114;5.718;2023-08-30T02:46:35;14.40;;;10.18;;
25503;SDS011;13410;52.114;5.718;2023-08-30T02:49:02;13.48;;;9.63;;
25503;SDS011;13410;52.114;5.718;2023-08-30T02:51:35;14.93;;;10.02;;
25503;SDS011;13410;52.114;5.718;2023-08-30T02:54:01;11.45;;;9.30;;
25503;SDS011;13410;52.114;5.718;2023-08-30T02:56:27;14.02;;;10.45;;
25503;SDS011;13410;52.114;5.718;2023-08-30T02:58:53;14.57;;;10.18;;
25503;SDS011;13410;52.114;5.718;2023-08-30T03:01:19;13.07;;;9.85;;
25503;SDS011;13410;52.114;5.718;2023-08-30T03:03:45;13.07;;;9.90;;
25503;SDS011;13410;52.114;5.718;2023-08-30T03:06:11;13.15;;;10.73;;
25503;SDS011;13410;52.114;5.718;2023-08-30T03:08:39;15.88;;;10.57;;
25503;SDS011;13410;52.114;5.718;2023-08-30T03:11:11;13.75;;;10.32;;
25503;SDS011;13410;52.114;5.718;2023-08-30T03:13:38;14.13;;;10.23;;
25503;SDS011;13410;52.114;5.718;2023-08-30T03:16:10;12.85;;;9.52;;
25503;SDS011;13410;52.114;5.718;2023-08-30T03:18:37;11.70;;;9.07;;
25503;SDS011;13410;52.114;5.718;2023-08-30T03:21:03;12.32;;;9.30;;
25503;SDS011;13410;52.114;5.718;2023-08-30T03:23:30;14.68;;;11.18;;
25503;SDS011;13410;52.114;5.718;2023-08-30T03:25:57;15.05;;;11.00;;
25503;SDS011;13410;52.114;5.718;2023-08-30T03:28:34;13.93;;;10.70;;
25503;SDS011;13410;52.114;5.718;2023-08-30T03:31:00;13.18;;;10.55;;
25503;SDS011;13410;52.114;5.718;2023-08-30T03:33:26;12.57;;;10.30;;
25503;SDS011;13410;52.114;5.718;2023-08-30T03:35:54;15.20;;;11.25;;
25503;SDS011;13410;52.114;5.718;2023-08-30T03:38:26;14.00;;;10.65;;
25503;SDS011;13410;52.114;5.718;2023-08-30T03:40:55;14.85;;;9.85;;
25503;SDS011;13410;52.114;5.718;2023-08-30T03:43:23;16.77;;;11.63;;
25503;SDS011;13410;52.114;5.718;2023-08-30T03:45:49;14.40;;;10.88;;
25503;SDS011;13410;52.114;5.718;2023-08-30T03:48:15;15.75;;;11.95;;
25503;SDS011;13410;52.114;5.718;2023-08-30T03:50:41;14.48;;;11.07;;
25503;SDS011;13410;52.114;5.718;2023-08-30T03:53:06;15.65;;;10.98;;
25503;SDS011;13410;52.114;5.718;2023-08-30T03:55:33;15.85;;;12.00;;
25503;SDS011;13410;52.114;5.718;2023-08-30T03:57:59;15.77;;;11.77;;
25503;SDS011;13410;52.114;5.718;2023-08-30T04:00:24;15.88;;;12.50;;
25503;SDS011;13410;52.114;5.718;2023-08-30T04:02:50;17.63;;;12.02;;
25503;SDS011;13410;52.114;5.718;2023-08-30T04:05:16;18.85;;;12.60;;
25503;SDS011;13410;52.114;5.718;2023-08-30T04:07:41;19.40;;;13.80;;
25503;SDS011;13410;52.114;5.718;2023-08-30T04:10:07;22.42;;;12.73;;
25503;SDS011;13410;52.114;5.718;2023-08-30T04:12:34;18.98;;;12.70;;
25503;SDS011;13410;52.114;5.718;2023-08-30T04:15:02;17.10;;;12.57;;
25503;SDS011;13410;52.114;5.718;2023-08-30T04:17:28;17.88;;;13.00;;
25503;SDS011;13410;52.114;5.718;2023-08-30T04:19:54;17.58;;;12.43;;
25503;SDS011;13410;52.114;5.718;2023-08-30T04:22:22;18.55;;;13.25;;
25503;SDS011;13410;52.114;5.718;2023-08-30T04:24:48;18.02;;;13.38;;
25503;SDS011;13410;52.114;5.718;2023-08-30T04:27:14;20.00;;;13.77;;
25503;SDS011;13410;52.114;5.718;2023-08-30T04:29:39;19.48;;;13.15;;
25503;SDS011;13410;52.114;5.718;2023-08-30T04:32:09;20.63;;;13.50;;
25503;SDS011;13410;52.114;5.718;2023-08-30T04:34:40;18.63;;;12.93;;
25503;SDS011;13410;52.114;5.718;2023-08-30T04:37:06;19.05;;;13.02;;
25503;SDS011;13410;52.114;5.718;2023-08-30T04:39:32;21.73;;;13.57;;
25503;SDS011;13410;52.114;5.718;2023-08-30T04:41:57;18.30;;;13.10;;
25503;SDS011;13410;52.114;5.718;2023-08-30T04:44:23;18.13;;;13.02;;
25503;SDS011;13410;52.114;5.718;2023-08-30T04:46:50;20.48;;;13.93;;
25503;SDS011;13410;52.114;5.718;2023-08-30T04:49:17;23.13;;;13.93;;
25503;SDS011;13410;52.114;5.718;2023-08-30T04:51:43;20.75;;;13.27;;
25503;SDS011;13410;52.114;5.718;2023-08-30T04:54:08;19.65;;;13.40;;
25503;SDS011;13410;52.114;5.718;2023-08-30T04:56:37;19.63;;;12.80;;
25503;SDS011;13410;52.114;5.718;2023-08-30T04:59:02;16.92;;;12.35;;
25503;SDS011;13410;52.114;5.718;2023-08-30T05:01:29;17.02;;;12.38;;
25503;SDS011;13410;52.114;5.718;2023-08-30T05:03:55;19.73;;;12.52;;
25503;SDS011;13410;52.114;5.718;2023-08-30T05:06:21;15.75;;;11.57;;
25503;SDS011;13410;52.114;5.718;2023-08-30T05:08:47;14.75;;;11.23;;
25503;SDS011;13410;52.114;5.718;2023-08-30T05:11:12;17.70;;;11.40;;
25503;SDS011;13410;52.114;5.718;2023-08-30T05:13:38;18.10;;;10.45;;
25503;SDS011;13410;52.114;5.718;2023-08-30T05:16:04;15.00;;;10.55;;
25503;SDS011;13410;52.114;5.718;2023-08-30T05:18:30;13.95;;;9.73;;
25503;SDS011;13410;52.114;5.718;2023-08-30T05:20:55;14.95;;;10.00;;
25503;SDS011;13410;52.114;5.718;2023-08-30T05:23:21;13.38;;;9.18;;
25503;SDS011;13410;52.114;5.718;2023-08-30T05:25:46;12.77;;;9.20;;
25503;SDS011;13410;52.114;5.718;2023-08-30T05:28:12;12.52;;;8.40;;
25503;SDS011;13410;52.114;5.718;2023-08-30T05:30:42;11.80;;;8.43;;
25503;SDS011;13410;52.114;5.718;2023-08-30T05:33:09;12.10;;;8.75;;
25503;SDS011;13410;52.114;5.718;2023-08-30T05:35:35;12.15;;;8.02;;
25503;SDS011;13410;52.114;5.718;2023-08-30T05:38:01;12.85;;;8.82;;
25503;SDS011;13410;52.114;5.718;2023-08-30T05:40:26;11.75;;;8.50;;
25503;SDS011;13410;52.114;5.718;2023-08-30T05:42:52;10.70;;;8.70;;
25503;SDS011;13410;52.114;5.718;2023-08-30T05:45:19;12.20;;;8.52;;
25503;SDS011;13410;52.114;5.718;2023-08-30T05:47:45;13.35;;;8.82;;
25503;SDS011;13410;52.114;5.718;2023-08-30T05:50:11;13.43;;;9.80;;
25503;SDS011;13410;52.114;5.718;2023-08-30T05:52:37;12.38;;;8.93;;
25503;SDS011;13410;52.114;5.718;2023-08-30T05:55:06;12.70;;;9.65;;
25503;SDS011;13410;52.114;5.718;2023-08-30T05:57:33;12.60;;;9.32;;
25503;SDS011;13410;52.114;5.718;2023-08-30T05:59:59;11.90;;;9.57;;
25503;SDS011;13410;52.114;5.718;2023-08-30T06:02:26;14.23;;;9.82;;
25503;SDS011;13410;52.114;5.718;2023-08-30T06:04:51;18.25;;;10.02;;
25503;SDS011;13410;52.114;5.718;2023-08-30T06:07:17;15.52;;;10.25;;
25503;SDS011;13410;52.114;5.718;2023-08-30T06:09:43;12.88;;;9.30;;
25503;SDS011;13410;52.114;5.718;2023-08-30T06:12:09;15.63;;;9.80;;
25503;SDS011;13410;52.114;5.718;2023-08-30T06:14:35;15.10;;;10.20;;
25503;SDS011;13410;52.114;5.718;2023-08-30T06:17:01;12.45;;;9.70;;
25503;SDS011;13410;52.114;5.718;2023-08-30T06:19:27;13.00;;;9.68;;
25503;SDS011;13410;52.114;5.718;2023-08-30T06:21:53;12.95;;;9.38;;
25503;SDS011;13410;52.114;5.718;2023-08-30T06:24:18;14.57;;;9.65;;
25503;SDS011;13410;52.114;5.718;2023-08-30T06:26:44;18.80;;;9.70;;
25503;SDS011;13410;52.114;5.718;2023-08-30T06:29:10;12.15;;;9.30;;
25503;SDS011;13410;52.114;5.718;2023-08-30T06:31:36;11.70;;;9.57;;
25503;SDS011;13410;52.114;5.718;2023-08-30T06:34:02;14.95;;;9.85;;
25503;SDS011;13410;52.114;5.718;2023-08-30T06:36:27;13.80;;;9.20;;
25503;SDS011;13410;52.114;5.718;2023-08-30T06:38:53;14.60;;;10.50;;
25503;SDS011;13410;52.114;5.718;2023-08-30T06:41:19;14.43;;;9.63;;
25503;SDS011;13410;52.114;5.718;2023-08-30T06:43:44;15.63;;;9.73;;
25503;SDS011;13410;52.114;5.718;2023-08-30T06:46:13;14.98;;;10.23;;
25503;SDS011;13410;52.114;5.718;2023-08-30T06:48:38;15.75;;;10.02;;
25503;SDS011;13410;52.114;5.718;2023-08-30T06:51:04;13.55;;;9.68;;
25503;SDS011;13410;52.114;5.718;2023-08-30T06:53:30;14.48;;;10.27;;
25503;SDS011;13410;52.114;5.718;2023-08-30T06:55:56;13.27;;;9.23;;
25503;SDS011;13410;52.114;5.718;2023-08-30T06:58:25;13.82;;;9.57;;
25503;SDS011;13410;52.114;5.718;2023-08-30T07:00:52;12.77;;;9.23;;
25503;SDS011;13410;52.114;5.718;2023-08-30T07:03:18;14.50;;;10.23;;
25503;SDS011;13410;52.114;5.718;2023-08-30T07:05:44;12.18;;;9.88;;
25503;SDS011;13410;52.114;5.718;2023-08-30T07:08:12;13.73;;;9.65;;
25503;SDS011;13410;52.114;5.718;2023-08-30T07:10:39;16.70;;;10.13;;
25503;SDS011;13410;52.114;5.718;2023-08-30T07:13:04;15.40;;;10.60;;
25503;SDS011;13410;52.114;5.718;2023-08-30T07:15:35;15.18;;;10.73;;
25503;SDS011;13410;52.114;5.718;2023-08-30T07:18:01;15.00;;;11.00;;
25503;SDS011;13410;52.114;5.718;2023-08-30T07:20:28;18.40;;;10.82;;
25503;SDS011;13410;52.114;5.718;2023-08-30T07:23:01;16.20;;;10.95;;
25503;SDS011;13410;52.114;5.718;2023-08-30T07:25:27;17.10;;;11.35;;
25503;SDS011;13410;52.114;5.718;2023-08-30T07:27:54;16.33;;;11.90;;
25503;SDS011;13410;52.114;5.718;2023-08-30T07:30:19;15.95;;;12.05;;
25503;SDS011;13410;52.114;5.718;2023-08-30T07:32:45;16.40;;;10.70;;
25503;SDS011;13410;52.114;5.718;2023-08-30T07:35:11;15.02;;;11.32;;
25503;SDS011;13410;52.114;5.718;2023-08-30T07:37:36;15.65;;;11.82;;
25503;SDS011;13410;52.114;5.718;2023-08-30T07:40:05;15.95;;;11.20;;
25503;SDS011;13410;52.114;5.718;2023-08-30T07:42:32;17.98;;;12.57;;
25503;SDS011;13410;52.114;5.718;2023-08-30T07:45:00;16.45;;;12.05;;
25503;SDS011;13410;52.114;5.718;2023-08-30T07:47:26;17.85;;;12.40;;
25503;SDS011;13410;52.114;5.718;2023-08-30T07:49:51;17.67;;;12.93;;
25503;SDS011;13410;52.114;5.718;2023-08-30T07:52:19;17.83;;;12.15;;
25503;SDS011;13410;52.114;5.718;2023-08-30T07:54:45;16.70;;;12.45;;
25503;SDS011;13410;52.114;5.718;2023-08-30T07:57:13;17.33;;;12.20;;
25503;SDS011;13410;52.114;5.718;2023-08-30T07:59:39;15.65;;;11.30;;
25503;SDS011;13410;52.114;5.718;2023-08-30T08:02:05;16.15;;;11.70;;
25503;SDS011;13410;52.114;5.718;2023-08-30T08:04:32;16.17;;;11.07;;
25503;SDS011;13410;52.114;5.718;2023-08-30T08:07:01;15.15;;;11.73;;
25503;SDS011;13410;52.114;5.718;2023-08-30T08:09:27;17.33;;;11.85;;
25503;SDS011;13410;52.114;5.718;2023-08-30T08:11:53;15.07;;;11.35;;
25503;SDS011;13410;52.114;5.718;2023-08-30T08:14:22;18.17;;;12.57;;
25503;SDS011;13410;52.114;5.718;2023-08-30T08:16:54;17.63;;;11.85;;
25503;SDS011;13410;52.114;5.718;2023-08-30T08:19:20;15.98;;;12.10;;
25503;SDS011;13410;52.114;5.718;2023-08-30T08:21:46;14.90;;;11.00;;
25503;SDS011;13410;52.114;5.718;2023-08-30T08:24:13;13.48;;;10.27;;
25503;SDS011;13410;52.114;5.718;2023-08-30T08:26:39;15.43;;;9.82;;
25503;SDS011;13410;52.114;5.718;2023-08-30T08:29:04;12.88;;;9.80;;
25503;SDS011;13410;52.114;5.718;2023-08-30T08:31:30;14.85;;;9.48;;
25503;SDS011;13410;52.114;5.718;2023-08-30T08:34:09;12.90;;;10.02;;
25503;SDS011;13410;52.114;5.718;2023-08-30T08:36:39;13.43;;;10.10;;
25503;SDS011;13410;52.114;5.718;2023-08-30T08:39:07;12.77;;;9.55;;
25503;SDS011;13410;52.114;5.718;2023-08-30T08:41:44;11.05;;;8.95;;
25503;SDS011;13410;52.114;5.718;2023-08-30T08:44:11;12.13;;;8.15;;
25503;SDS011;13410;52.114;5.718;2023-08-30T08:46:38;12.32;;;8.85;;
25503;SDS011;13410;52.114;5.718;2023-08-30T08:49:08;11.13;;;8.10;;
25503;SDS011;13410;52.114;5.718;2023-08-30T08:51:38;10.05;;;7.80;;
25503;SDS011;13410;52.114;5.718;2023-08-30T08:54:07;10.23;;;7.55;;
25503;SDS011;13410;52.114;5.718;2023-08-30T08:56:37;13.00;;;8.50;;
25503;SDS011;13410;52.114;5.718;2023-08-30T08:59:03;11.52;;;7.80;;
25503;SDS011;13410;52.114;5.718;2023-08-30T09:01:33;14.93;;;8.00;;
25503;SDS011;13410;52.114;5.718;2023-08-30T09:04:03;11.45;;;8.18;;
25503;SDS011;13410;52.114;5.718;2023-08-30T09:06:31;9.85;;;8.35;;
25503;SDS011;13410;52.114;5.718;2023-08-30T09:08:56;10.05;;;7.75;;
25503;SDS011;13410;52.114;5.718;2023-08-30T09:11:22;13.95;;;8.48;;
25503;SDS011;13410;52.114;5.718;2023-08-30T09:13:48;12.05;;;8.10;;
25503;SDS011;13410;52.114;5.718;2023-08-30T09:16:14;11.13;;;8.48;;
25503;SDS011;13410;52.114;5.718;2023-08-30T09:18:41;11.80;;;8.75;;
25503;SDS011;13410;52.114;5.718;2023-08-30T09:21:08;10.85;;;8.30;;
25503;SDS011;13410;52.114;5.718;2023-08-30T09:23:34;10.27;;;8.35;;
25503;SDS011;13410;52.114;5.718;2023-08-30T09:26:00;11.90;;;8.60;;
25503;SDS011;13410;52.114;5.718;2023-08-30T09:28:27;10.60;;;8.60;;
25503;SDS011;13410;52.114;5.718;2023-08-30T09:30:53;10.70;;;8.02;;
25503;SDS011;13410;52.114;5.718;2023-08-30T09:33:22;11.48;;;8.40;;
25503;SDS011;13410;52.114;5.718;2023-08-30T09:35:54;10.77;;;8.20;;
25503;SDS011;13410;52.114;5.718;2023-08-30T09:38:20;10.48;;;8.32;;
25503;SDS011;13410;52.114;5.718;2023-08-30T09:40:47;11.25;;;8.60;;
25503;SDS011;13410;52.114;5.718;2023-08-30T09:43:13;9.55;;;8.13;;
25503;SDS011;13410;52.114;5.718;2023-08-30T09:45:43;10.00;;;8.20;;
25503;SDS011;13410;52.114;5.718;2023-08-30T09:48:08;10.90;;;8.40;;
25503;SDS011;13410;52.114;5.718;2023-08-30T09:50:35;8.85;;;7.80;;
25503;SDS011;13410;52.114;5.718;2023-08-30T09:53:08;10.65;;;8.40;;
25503;SDS011;13410;52.114;5.718;2023-08-30T09:55:37;10.35;;;7.93;;
25503;SDS011;13410;52.114;5.718;2023-08-30T09:58:04;10.35;;;8.13;;
25503;SDS011;13410;52.114;5.718;2023-08-30T10:00:31;10.10;;;8.60;;
25503;SDS011;13410;52.114;5.718;2023-08-30T10:02:58;11.07;;;8.98;;
25503;SDS011;13410;52.114;5.718;2023-08-30T10:05:25;12.07;;;9.02;;
25503;SDS011;13410;52.114;5.718;2023-08-30T10:07:52;12.15;;;8.63;;
25503;SDS011;13410;52.114;5.718;2023-08-30T10:10:19;10.48;;;9.00;;
25503;SDS011;13410;52.114;5.718;2023-08-30T10:12:48;9.98;;;8.85;;
25503;SDS011;13410;52.114;5.718;2023-08-30T10:15:15;10.50;;;9.25;;
25503;SDS011;13410;52.114;5.718;2023-08-30T10:17:41;12.80;;;9.27;;
25503;SDS011;13410;52.114;5.718;2023-08-30T10:20:10;14.43;;;9.05;;
25503;SDS011;13410;52.114;5.718;2023-08-30T10:22:39;12.88;;;9.85;;
25503;SDS011;13410;52.114;5.718;2023-08-30T10:25:08;9.80;;;8.73;;
25503;SDS011;13410;52.114;5.718;2023-08-30T10:27:49;10.73;;;9.05;;
25503;SDS011;13410;52.114;5.718;2023-08-30T10:30:15;10.50;;;9.40;;
25503;SDS011;13410;52.114;5.718;2023-08-30T10:32:43;11.48;;;10.15;;
25503;SDS011;13410;52.114;5.718;2023-08-30T10:35:14;11.82;;;10.00;;
25503;SDS011;13410;52.114;5.718;2023-08-30T10:37:41;11.43;;;10.02;;
25503;SDS011;13410;52.114;5.718;2023-08-30T10:40:07;13.13;;;10.32;;
25503;SDS011;13410;52.114;5.718;2023-08-30T10:42:34;11.75;;;9.88;;
25503;SDS011;13410;52.114;5.718;2023-08-30T10:47:35;11.65;;;9.77;;
25503;SDS011;13410;52.114;5.718;2023-08-30T10:50:11;16.98;;;11.20;;
25503;SDS011;13410;52.114;5.718;2023-08-30T10:52:37;11.48;;;10.05;;
25503;SDS011;13410;52.114;5.718;2023-08-30T10:55:04;14.02;;;11.82;;
25503;SDS011;13410;52.114;5.718;2023-08-30T10:57:30;15.30;;;12.73;;
25503;SDS011;13410;52.114;5.718;2023-08-30T11:00:08;12.90;;;11.50;;
25503;SDS011;13410;52.114;5.718;2023-08-30T11:02:45;11.63;;;10.43;;
25503;SDS011;13410;52.114;5.718;2023-08-30T11:05:11;10.77;;;9.77;;
25503;SDS011;13410;52.114;5.718;2023-08-30T11:07:37;10.57;;;9.57;;
25503;SDS011;13410;52.114;5.718;2023-08-30T11:10:06;10.88;;;9.77;;
25503;SDS011;13410;52.114;5.718;2023-08-30T11:12:33;10.07;;;8.93;;
25503;SDS011;13410;52.114;5.718;2023-08-30T11:15:00;9.85;;;8.00;;
25503;SDS011;13410;52.114;5.718;2023-08-30T11:17:29;10.52;;;8.48;;
25503;SDS011;13410;52.114;5.718;2023-08-30T11:20:05;9.13;;;8.20;;
25503;SDS011;13410;52.114;5.718;2023-08-30T11:22:37;9.43;;;8.38;;
25503;SDS011;13410;52.114;5.718;2023-08-30T11:25:07;9.23;;;8.18;;
25503;SDS011;13410;52.114;5.718;2023-08-30T11:27:34;10.10;;;7.18;;
25503;SDS011;13410;52.114;5.718;2023-08-30T11:30:00;7.68;;;6.88;;
25503;SDS011;13410;52.114;5.718;2023-08-30T11:35:00;6.57;;;5.95;;
25503;SDS011;13410;52.114;5.718;2023-08-30T11:37:47;7.70;;;6.53;;
25503;SDS011;13410;52.114;5.718;2023-08-30T11:40:11;9.07;;;6.40;;
25503;SDS011;13410;52.114;5.718;2023-08-30T11:42:37;8.50;;;6.38;;
25503;SDS011;13410;52.114;5.718;2023-08-30T11:45:03;10.02;;;5.93;;
25503;SDS011;13410;52.114;5.718;2023-08-30T11:47:29;8.95;;;5.57;;
25503;SDS011;13410;52.114;5.718;2023-08-30T11:49:55;7.20;;;4.57;;
25503;SDS011;13410;52.114;5.718;2023-08-30T11:52:25;10.25;;;5.00;;
25503;SDS011;13410;52.114;5.718;2023-08-30T11:54:51;8.13;;;4.63;;
25503;SDS011;13410;52.114;5.718;2023-08-30T11:57:17;8.82;;;4.85;;
25503;SDS011;13410;52.114;5.718;2023-08-30T11:59:43;9.25;;;4.22;;
25503;SDS011;13410;52.114;5.718;2023-08-30T12:02:09;6.90;;;4.00;;
25503;SDS011;13410;52.114;5.718;2023-08-30T12:04:42;10.90;;;4.18;;
25503;SDS011;13410;52.114;5.718;2023-08-30T12:07:08;8.03;;;3.93;;
25503;SDS011;13410;52.114;5.718;2023-08-30T12:09:36;7.65;;;3.67;;
25503;SDS011;13410;52.114;5.718;2023-08-30T12:12:22;8.32;;;4.13;;
25503;SDS011;13410;52.114;5.718;2023-08-30T12:14:54;7.68;;;3.60;;
25503;SDS011;13410;52.114;5.718;2023-08-30T12:17:23;11.32;;;4.10;;
25503;SDS011;13410;52.114;5.718;2023-08-30T12:19:58;7.10;;;3.22;;
25503;SDS011;13410;52.114;5.718;2023-08-30T12:22:35;7.32;;;3.50;;
25503;SDS011;13410;52.114;5.718;2023-08-30T12:25:04;5.75;;;3.20;;
25503;SDS011;13410;52.114;5.718;2023-08-30T12:27:40;7.30;;;2.83;;
25503;SDS011;13410;52.114;5.718;2023-08-30T12:30:06;10.25;;;3.30;;
25503;SDS011;13410;52.114;5.718;2023-08-30T12:32:32;9.05;;;3.83;;
25503;SDS011;13410;52.114;5.718;2023-08-30T12:34:58;8.00;;;3.80;;
25503;SDS011;13410;52.114;5.718;2023-08-30T12:37:24;7.07;;;3.25;;
25503;SDS011;13410;52.114;5.718;2023-08-30T12:39:49;5.10;;;3.15;;
25503;SDS011;13410;52.114;5.718;2023-08-30T12:42:15;8.38;;;3.45;;
25503;SDS011;13410;52.114;5.718;2023-08-30T12:44:41;7.97;;;3.33;;
25503;SDS011;13410;52.114;5.718;2023-08-30T12:47:06;10.40;;;3.03;;
25503;SDS011;13410;52.114;5.718;2023-08-30T12:49:32;7.22;;;3.53;;
25503;SDS011;13410;52.114;5.718;2023-08-30T12:51:58;7.13;;;2.88;;
25503;SDS011;13410;52.114;5.718;2023-08-30T12:54:24;9.00;;;3.28;;
25503;SDS011;13410;52.114;5.718;2023-08-30T12:56:49;7.47;;;3.40;;
25503;SDS011;13410;52.114;5.718;2023-08-30T12:59:15;8.20;;;3.08;;
25503;SDS011;13410;52.114;5.718;2023-08-30T13:01:41;8.55;;;2.78;;
25503;SDS011;13410;52.114;5.718;2023-08-30T13:04:07;7.53;;;2.63;;
25503;SDS011;13410;52.114;5.718;2023-08-30T13:06:33;7.35;;;3.10;;
25503;SDS011;13410;52.114;5.718;2023-08-30T13:08:59;10.05;;;2.85;;
25503;SDS011;13410;52.114;5.718;2023-08-30T13:11:24;5.43;;;2.40;;
25503;SDS011;13410;52.114;5.718;2023-08-30T13:13:52;7.93;;;3.03;;
25503;SDS011;13410;52.114;5.718;2023-08-30T13:16:18;8.32;;;2.42;;
25503;SDS011;13410;52.114;5.718;2023-08-30T13:18:43;8.43;;;2.85;;
25503;SDS011;13410;52.114;5.718;2023-08-30T13:21:09;5.63;;;2.20;;
25503;SDS011;13410;52.114;5.718;2023-08-30T13:23:35;6.38;;;2.40;;
25503;SDS011;13410;52.114;5.718;2023-08-30T13:26:00;7.85;;;2.25;;
25503;SDS011;13410;52.114;5.718;2023-08-30T13:28:26;5.63;;;1.95;;
25503;SDS011;13410;52.114;5.718;2023-08-30T13:30:51;12.57;;;2.40;;
25503;SDS011;13410;52.114;5.718;2023-08-30T13:33:19;7.43;;;2.03;;
25503;SDS011;13410;52.114;5.718;2023-08-30T13:35:48;8.38;;;2.00;;
25503;SDS011;13410;52.114;5.718;2023-08-30T13:38:18;8.60;;;2.30;;
25503;SDS011;13410;52.114;5.718;2023-08-30T13:40:43;7.75;;;2.10;;
25503;SDS011;13410;52.114;5.718;2023-08-30T13:43:10;6.35;;;1.88;;
25503;SDS011;13410;52.114;5.718;2023-08-30T13:45:35;8.30;;;2.10;;
25503;SDS011;13410;52.114;5.718;2023-08-30T13:48:01;5.43;;;2.20;;
25503;SDS011;13410;52.114;5.718;2023-08-30T13:50:27;9.27;;;2.47;;
25503;SDS011;13410;52.114;5.718;2023-08-30T13:52:55;7.03;;;2.28;;
25503;SDS011;13410;52.114;5.718;2023-08-30T13:55:21;6.78;;;2.30;;
25503;SDS011;13410;52.114;5.718;2023-08-30T13:57:47;5.78;;;2.17;;
25503;SDS011;13410;52.114;5.718;2023-08-30T14:00:13;7.22;;;2.20;;
25503;SDS011;13410;52.114;5.718;2023-08-30T14:02:39;10.02;;;1.98;;
25503;SDS011;13410;52.114;5.718;2023-08-30T14:05:05;9.07;;;2.10;;
25503;SDS011;13410;52.114;5.718;2023-08-30T14:07:31;6.45;;;1.92;;
25503;SDS011;13410;52.114;5.718;2023-08-30T14:09:57;6.80;;;2.00;;
25503;SDS011;13410;52.114;5.718;2023-08-30T14:12:23;8.32;;;2.20;;
25503;SDS011;13410;52.114;5.718;2023-08-30T14:14:49;6.70;;;1.98;;
25503;SDS011;13410;52.114;5.718;2023-08-30T14:17:14;7.00;;;2.20;;
25503;SDS011;13410;52.114;5.718;2023-08-30T14:19:40;6.30;;;1.75;;
25503;SDS011;13410;52.114;5.718;2023-08-30T14:22:06;4.70;;;1.60;;
25503;SDS011;13410;52.114;5.718;2023-08-30T14:24:32;4.22;;;1.58;;
25503;SDS011;13410;52.114;5.718;2023-08-30T14:26:59;5.47;;;1.73;;
25503;SDS011;13410;52.114;5.718;2023-08-30T14:29:25;9.45;;;2.20;;
25503;SDS011;13410;52.114;5.718;2023-08-30T14:31:51;5.97;;;1.90;;
25503;SDS011;13410;52.114;5.718;2023-08-30T14:34:17;7.13;;;2.00;;
25503;SDS011;13410;52.114;5.718;2023-08-30T14:36:45;7.13;;;2.35;;
25503;SDS011;13410;52.114;5.718;2023-08-30T14:39:11;7.00;;;2.25;;
25503;SDS011;13410;52.114;5.718;2023-08-30T14:41:36;7.10;;;2.58;;
25503;SDS011;13410;52.114;5.718;2023-08-30T14:44:03;3.28;;;1.60;;
25503;SDS011;13410;52.114;5.718;2023-08-30T14:46:29;3.50;;;1.60;;
25503;SDS011;13410;52.114;5.718;2023-08-30T14:48:54;5.60;;;1.83;;